Winona Lake, Indiana
Current Conditions -  °F | °C
As of 12:35 PM on Friday 31 Oct 2014 (Local Time) from KASW Reporting Station
Overcast Overcast  
Wind Chill: 29°   Ceiling: 1200
Heat Index: 37°   Visibility: 10mi
Dew Point: 36°   Wind: 13mph
Humidity: 93%   Direction: 300°WNW
Pressure: 29.95"   Gusts: NA
Location:  41.23°N, 85.82°W
Report Text: KASW 311635Z AUTO 30011KT 10SM OVC012 03/02 A2995 RMK AO2
Loading
Personal Weather Stations






























Interactive Weather Map
Tropical Storm Tracking
New forecast layout! Learn more

10-Day Weather Forecast

Advertisements
Track Severe Weather on mobile